Time;durP1;ratioP1;P1;durP2;ratioP2;P2;SDS_P1;SDS_P2;PMS_P1;PMS_P2;Temp;Humidity;BMP_temperature;BMP_pressure;BME280_temperature;BME280_humidity;BME280_pressure;Samples;Min_cycle;Max_cycle;Signal;HPM_P1;HPM_P2
2022/04/06 00:02:13;;;;;;;20.37;14.43;;;;;;;7.23;100.00;99956.53;5025563;28;20259;-76
2022/04/06 00:04:38;;;;;;;16.10;13.17;;;;;;;7.56;100.00;99951.19;5033660;28;20194;-76
2022/04/06 00:07:04;;;;;;;18.90;12.70;;;;;;;7.63;100.00;99947.88;5027283;28;20191;-76
2022/04/06 00:09:29;;;;;;;16.97;14.20;;;;;;;7.84;100.00;99938.91;5031843;28;20194;-76
2022/04/06 00:11:55;;;;;;;18.20;13.50;;;;;;;7.82;100.00;99948.22;5028788;28;20793;-76
2022/04/06 00:14:21;;;;;;;17.93;13.83;;;;;;;7.92;100.00;99950.06;5013130;28;20242;-76
2022/04/06 00:16:46;;;;;;;18.63;13.13;;;;;;;8.05;100.00;99940.91;5013851;28;20572;-76
2022/04/06 00:19:12;;;;;;;18.10;13.50;;;;;;;8.07;100.00;99940.09;5017216;28;20272;-76
2022/04/06 00:21:37;;;;;;;19.03;13.57;;;;;;;8.12;100.00;99941.03;5050012;28;20666;-76
2022/04/06 00:24:03;;;;;;;19.83;14.57;;;;;;;8.17;100.00;99941.97;5031940;28;20296;-76
2022/04/06 00:26:29;;;;;;;20.07;15.03;;;;;;;8.23;100.00;99936.97;5051519;28;20186;-76
2022/04/06 00:28:54;;;;;;;19.33;13.83;;;;;;;8.24;100.00;99943.78;5051535;28;20592;-76
2022/04/06 00:31:19;;;;;;;18.60;13.90;;;;;;;8.28;100.00;99939.56;5017345;28;20684;-76
2022/04/06 00:33:44;;;;;;;21.60;14.87;;;;;;;8.26;100.00;99934.47;5033335;28;20268;-76
2022/04/06 00:36:10;;;;;;;22.17;14.40;;;;;;;8.29;100.00;99944.69;5019192;28;20205;-76
2022/04/06 00:38:35;;;;;;;22.63;14.70;;;;;;;8.31;100.00;99942.19;5031629;28;20199;-76
2022/04/06 00:41:00;;;;;;;19.97;15.30;;;;;;;8.31;100.00;99937.94;5032328;28;20244;-76
2022/04/06 00:43:26;;;;;;;20.53;13.63;;;;;;;8.32;100.00;99938.78;5033144;28;20209;-76
2022/04/06 00:45:51;;;;;;;22.27;15.00;;;;;;;8.37;100.00;99930.38;5033325;28;20745;-76
2022/04/06 00:48:16;;;;;;;20.83;15.03;;;;;;;8.34;100.00;99940.53;5029164;28;20546;-76
2022/04/06 00:50:42;;;;;;;20.57;14.47;;;;;;;8.35;100.00;99939.72;5031466;28;20470;-76
2022/04/06 00:53:08;;;;;;;22.17;14.23;;;;;;;8.36;100.00;99931.22;5036182;28;20193;-76
2022/04/06 00:55:36;;;;;;;18.57;14.00;;;;;;;8.38;100.00;99932.06;5054973;28;20192;-76
2022/04/06 00:58:02;;;;;;;18.27;13.50;;;;;;;8.36;100.00;99923.56;5037464;28;20275;-76
2022/04/06 01:00:28;;;;;;;17.03;13.17;;;;;;;8.38;100.00;99924.41;5037555;28;20280;-76
2022/04/06 01:02:53;;;;;;;16.87;13.27;;;;;;;8.41;100.00;99926.16;5023705;28;20237;-76
2022/04/06 01:05:19;;;;;;;21.40;13.30;;;;;;;8.42;100.00;99930.41;5017637;28;20637;-76
2022/04/06 01:07:51;;;;;;;18.27;13.17;;;;;;;8.42;100.00;99920.22;5034981;28;20186;-76
2022/04/06 01:10:17;;;;;;;18.60;12.73;;;;;;;8.41;100.00;99919.38;5017136;28;20190;-76
2022/04/06 01:12:47;;;;;;;18.90;12.40;;;;;;;8.42;100.00;99920.22;5033008;28;20202;-76
2022/04/06 01:15:13;;;;;;;17.00;11.47;;;;;;;8.43;100.00;99921.94;5012548;28;20193;-76
2022/04/06 01:17:38;;;;;;;14.83;11.00;;;;;;;8.46;100.00;99921.97;5034260;28;20306;-76
2022/04/06 01:20:05;;;;;;;14.70;10.87;;;;;;;8.44;100.00;99913.44;5035269;28;20194;-76
2022/04/06 01:22:31;;;;;;;14.50;10.90;;;;;;;8.46;100.00;99916.88;5053855;28;20621;-76
2022/04/06 01:24:56;;;;;;;12.30;8.77;;;;;;;8.48;100.00;99915.22;5026760;28;20308;-75
2022/04/06 01:27:22;;;;;;;13.30;9.07;;;;;;;8.49;100.00;99911.81;5034303;28;20240;-76
2022/04/06 01:29:47;;;;;;;9.27;7.80;;;;;;;8.49;100.00;99920.34;5032161;28;20262;-76
2022/04/06 01:32:19;;;;;;;10.53;7.60;;;;;;;8.47;100.00;99916.88;5034513;28;20569;-76
2022/04/06 01:34:46;;;;;;;9.97;7.80;;;;;;;8.47;100.00;99916.06;5023054;28;20201;-76
2022/04/06 01:37:13;;;;;;;10.93;7.20;;;;;;;8.50;100.00;99926.28;5036392;28;20190;-76
2022/04/06 01:39:41;;;;;;;7.97;7.17;;;;;;;8.50;100.00;99929.69;5018227;28;20667;-76
2022/04/06 01:42:08;;;;;;;9.40;6.77;;;;;;;8.52;100.00;99929.72;5055251;28;20217;-76
2022/04/06 01:44:34;;;;;;;9.87;7.37;;;;;;;8.51;100.00;99922.88;5035084;28;20665;-76
2022/04/06 01:47:00;;;;;;;8.53;6.20;;;;;;;8.51;100.00;99923.75;5023751;28;20199;-76
2022/04/06 01:52:13;;;;;;;7.43;6.43;;;;;;;8.50;100.00;99927.13;5016829;28;20206;-77
2022/04/06 01:54:47;;;;;;;9.87;7.27;;;;;;;8.52;100.00;99924.63;5021149;28;21020;-76
2022/04/06 01:57:13;;;;;;;7.50;6.23;;;;;;;8.51;100.00;99923.75;5031320;28;20179;-76
2022/04/06 01:59:40;;;;;;;6.90;6.20;;;;;;;8.50;100.00;99926.28;5026038;28;20185;-76
2022/04/06 02:02:05;;;;;;;8.47;6.33;;;;;;;8.54;100.00;99922.94;5034502;28;20221;-76
2022/04/06 02:04:31;;;;;;;7.70;6.90;;;;;;;8.55;100.00;99925.50;5052622;28;20205;-76
2022/04/06 02:06:57;;;;;;;7.53;6.10;;;;;;;8.53;100.00;99922.06;5031456;28;20186;-76
2022/04/06 02:09:22;;;;;;;10.30;6.87;;;;;;;8.51;100.00;99917.78;5035890;28;20186;-76
2022/04/06 02:11:48;;;;;;;10.43;6.87;;;;;;;8.52;100.00;99925.44;5015868;28;20715;-77
2022/04/06 02:14:14;;;;;;;7.57;6.57;;;;;;;8.52;100.00;99915.25;5007441;28;20766;-76
2022/04/06 02:16:40;;;;;;;7.10;6.27;;;;;;;8.53;100.00;99919.50;5050444;28;20193;-76
2022/04/06 02:19:05;;;;;;;6.57;5.30;;;;;;;8.52;99.97;99928.00;5022268;28;20193;-76
2022/04/06 02:21:31;;;;;;;10.27;6.07;;;;;;;8.51;100.00;99916.09;5053421;28;20210;-76
2022/04/06 02:23:57;;;;;;;6.43;5.57;;;;;;;8.52;99.08;99919.50;5033564;28;20214;-76
2022/04/06 02:26:22;;;;;;;8.67;5.87;;;;;;;8.50;98.65;99910.97;5052744;28;20272;-76
2022/04/06 02:28:47;;;;;;;5.57;4.77;;;;;;;8.49;98.53;99917.78;5000362;28;20237;-76
2022/04/06 02:31:13;;;;;;;5.73;5.13;;;;;;;8.49;98.10;99917.78;5034019;28;20821;-76
2022/04/06 02:33:38;;;;;;;7.23;4.90;;;;;;;8.48;97.74;99921.16;5023960;28;20222;-76
2022/04/06 02:36:04;;;;;;;6.17;4.70;;;;;;;8.47;97.73;99918.59;5033734;28;20198;-76
2022/04/06 02:38:30;;;;;;;8.27;5.40;;;;;;;8.44;97.34;99916.84;5018248;28;20198;-75
2022/04/06 02:40:55;;;;;;;7.17;5.53;;;;;;;8.44;97.78;99909.19;5044788;28;20650;-76
2022/04/06 02:43:21;;;;;;;8.23;6.60;;;;;;;8.42;97.53;99913.44;5017876;28;20273;-76
2022/04/06 02:45:47;;;;;;;10.10;6.03;;;;;;;8.45;97.45;99908.38;5019672;28;20196;-76
2022/04/06 02:48:13;;;;;;;7.40;6.70;;;;;;;8.44;97.33;99909.19;5022648;28;20195;-76
2022/04/06 02:50:38;;;;;;;9.20;6.17;;;;;;;8.46;97.27;99909.22;5016186;28;20198;-76
2022/04/06 02:53:03;;;;;;;10.17;6.03;;;;;;;8.45;97.44;99904.97;5034481;28;20214;-76
2022/04/06 02:55:28;;;;;;;9.37;6.40;;;;;;;8.44;97.07;99901.53;5043411;28;20204;-76
2022/04/06 02:57:54;;;;;;;9.77;6.17;;;;;;;8.45;96.99;99897.31;5036156;28;20189;-77
2022/04/06 03:00:19;;;;;;;8.73;7.07;;;;;;;8.48;96.63;99899.91;5020861;28;20192;-76
2022/04/06 03:02:46;;;;;;;10.67;7.80;;;;;;;8.46;97.14;99897.31;5035150;28;20241;-76
2022/04/06 03:05:12;;;;;;;11.23;8.53;;;;;;;8.48;96.76;99897.34;5034791;28;20206;-77
2022/04/06 03:07:38;;;;;;;12.93;9.07;;;;;;;8.50;97.21;99899.09;5053485;28;20204;-76
2022/04/06 03:10:04;;;;;;;10.97;8.97;;;;;;;8.48;96.97;99889.69;5035157;28;20189;-76
2022/04/06 03:12:29;;;;;;;12.90;9.57;;;;;;;8.46;97.33;99893.91;5052909;28;20215;-76
2022/04/06 03:14:55;;;;;;;13.97;10.47;;;;;;;8.49;97.82;99901.59;5021770;28;20226;-76
2022/04/06 03:17:20;;;;;;;12.13;10.17;;;;;;;8.47;97.95;99895.66;5035239;28;20271;-76
2022/04/06 03:19:46;;;;;;;15.43;10.90;;;;;;;8.50;98.03;99895.66;5050921;28;20177;-76
2022/04/06 03:22:17;;;;;;;15.37;11.37;;;;;;;8.48;97.88;99900.75;5051413;28;20290;-76
2022/04/06 03:24:49;;;;;;;16.20;13.47;;;;;;;8.48;98.32;99893.09;5020423;28;20214;-76
2022/04/06 03:27:14;;;;;;;18.07;14.00;;;;;;;8.48;98.35;99895.63;5031824;28;20190;-76
2022/04/06 03:29:40;;;;;;;19.83;14.57;;;;;;;8.48;97.83;99893.09;5040830;28;20605;-76
2022/04/06 03:32:09;;;;;;;20.53;14.53;;;;;;;8.48;98.08;99892.25;5051003;28;20189;-77
2022/04/06 03:34:35;;;;;;;22.60;17.57;;;;;;;8.50;98.07;99890.56;5034156;28;20189;-76
2022/04/06 03:37:00;;;;;;;22.40;16.57;;;;;;;8.47;97.96;99882.88;5026941;28;20236;-76
2022/04/06 03:39:25;;;;;;;26.47;16.63;;;;;;;8.49;97.50;99884.63;5032191;28;20248;-76
2022/04/06 03:41:51;;;;;;;24.07;18.03;;;;;;;8.48;97.91;99885.44;5030916;28;20206;-77
2022/04/06 03:44:17;;;;;;;26.27;17.43;;;;;;;8.47;98.71;99885.44;5031823;28;20229;-77
2022/04/06 03:46:42;;;;;;;23.83;17.37;;;;;;;8.50;97.91;99881.22;5031276;28;20186;-76
2022/04/06 03:49:08;;;;;;;25.90;18.07;;;;;;;8.50;97.98;99883.78;5032925;28;20336;-76
2022/04/06 03:51:33;;;;;;;24.50;17.50;;;;;;;8.52;97.69;99874.44;5031408;28;20247;-76
2022/04/06 03:53:59;;;;;;;25.20;17.63;;;;;;;8.54;98.34;99877.88;5031192;28;20214;-76
2022/04/06 03:56:24;;;;;;;25.63;18.17;;;;;;;8.53;97.50;99876.13;5033032;28;20190;-77
2022/04/06 03:58:49;;;;;;;25.17;18.30;;;;;;;8.54;98.27;99877.00;5016397;28;20215;-76
2022/04/06 04:01:15;;;;;;;27.00;18.40;;;;;;;8.55;97.65;99877.03;5016141;28;20224;-77
2022/04/06 04:03:40;;;;;;;29.07;19.10;;;;;;;8.54;97.56;99872.78;5031189;28;20206;-76
2022/04/06 04:06:06;;;;;;;26.70;19.67;;;;;;;8.58;97.10;99871.09;5016307;28;20191;-77
2022/04/06 04:08:32;;;;;;;25.00;18.47;;;;;;;8.57;97.77;99871.94;5029744;28;20190;-76
2022/04/06 04:10:57;;;;;;;28.27;21.03;;;;;;;8.59;97.07;99871.13;5032952;28;20182;-76
2022/04/06 04:13:23;;;;;;;30.07;23.70;;;;;;;8.60;96.95;99864.31;4999253;28;20296;-76
2022/04/06 04:15:48;;;;;;;32.63;23.27;;;;;;;8.59;98.22;99867.72;5015185;28;20182;-76
2022/04/06 04:18:14;;;;;;;30.73;23.27;;;;;;;8.56;98.59;99867.66;5014685;28;20607;-77
2022/04/06 04:20:41;;;;;;;36.67;24.40;;;;;;;8.55;98.62;99866.81;5018449;28;20741;-76
2022/04/06 04:23:07;;;;;;;33.73;25.00;;;;;;;8.55;98.88;99868.50;5020020;28;20217;-76
2022/04/06 04:25:33;;;;;;;37.80;26.33;;;;;;;8.52;98.79;99864.22;5020387;28;20181;-76
2022/04/06 04:27:58;;;;;;;38.70;25.90;;;;;;;8.53;98.76;99860.84;5037140;28;20205;-76
2022/04/06 04:30:23;;;;;;;36.63;25.90;;;;;;;8.53;99.77;99862.53;5021366;28;20197;-76
2022/04/06 04:32:49;;;;;;;38.40;26.57;;;;;;;8.52;99.80;99864.22;5036181;28;20305;-76
2022/04/06 04:35:14;;;;;;;36.27;26.57;;;;;;;8.51;99.08;99854.88;5018932;28;20678;-76
2022/04/06 04:37:39;;;;;;;39.13;27.13;;;;;;;8.52;99.56;99858.28;5003492;28;20186;-76
2022/04/06 04:40:06;;;;;;;40.67;28.17;;;;;;;8.53;99.06;99860.00;5020230;28;20363;-76
2022/04/06 04:42:31;;;;;;;39.20;28.00;;;;;;;8.53;99.33;99857.44;5004294;28;20242;-76
2022/04/06 04:44:57;;;;;;;43.23;28.37;;;;;;;8.51;99.39;99854.88;5005469;28;20262;-76
2022/04/06 04:47:22;;;;;;;39.47;28.40;;;;;;;8.52;99.68;99837.88;4982769;28;20190;-77
2022/04/06 04:49:48;;;;;;;46.33;29.67;;;;;;;8.52;100.00;99848.91;4998722;28;20561;-76
2022/04/06 04:52:13;;;;;;;40.33;28.43;;;;;;;8.54;99.62;99843.84;4982321;28;20191;-76
2022/04/06 04:54:38;;;;;;;39.23;27.83;;;;;;;8.55;100.00;99845.53;4998906;28;20294;-76
2022/04/06 04:57:04;;;;;;;40.93;28.43;;;;;;;8.54;100.00;99854.91;4998156;28;20199;-76
2022/04/06 04:59:29;;;;;;;39.40;28.97;;;;;;;8.55;99.76;99841.31;5006724;28;20194;-76
2022/04/06 05:01:55;;;;;;;40.63;29.37;;;;;;;8.59;99.40;99855.81;5035189;28;20223;-76
2022/04/06 05:04:20;;;;;;;38.93;28.50;;;;;;;8.59;98.96;99854.94;5018250;28;20265;-76
2022/04/06 05:06:45;;;;;;;41.70;29.17;;;;;;;8.60;99.66;99851.56;5002302;28;20194;-76
2022/04/06 05:09:11;;;;;;;39.90;30.63;;;;;;;8.60;99.89;99842.22;5035622;28;20190;-76
2022/04/06 05:11:36;;;;;;;39.37;29.13;;;;;;;8.63;99.83;99843.94;5017935;28;20197;-76
2022/04/06 05:14:02;;;;;;;47.03;32.30;;;;;;;8.64;99.13;99851.63;5035593;28;20210;-76
2022/04/06 05:16:27;;;;;;;42.60;31.13;;;;;;;8.66;98.93;99852.47;5017511;28;20194;-76
2022/04/06 05:18:55;;;;;;;45.80;34.03;;;;;;;8.69;99.04;99842.31;5017343;28;20285;-76
2022/04/06 05:21:20;;;;;;;44.73;32.67;;;;;;;8.72;98.67;99839.81;5017445;28;20241;-76
2022/04/06 05:23:45;;;;;;;45.87;32.87;;;;;;;8.70;99.10;99841.47;5018283;28;20709;-76
2022/04/06 05:26:11;;;;;;;54.73;34.40;;;;;;;8.73;98.98;99856.81;5035277;28;20277;-76
2022/04/06 05:28:36;;;;;;;50.00;33.80;;;;;;;8.75;98.31;99849.19;5017439;28;20191;-76
2022/04/06 05:31:01;;;;;;;48.50;33.30;;;;;;;8.79;98.53;99846.66;5017192;28;20746;-76
2022/04/06 05:33:27;;;;;;;50.37;34.43;;;;;;;8.80;98.55;99845.81;5018124;28;20255;-76
2022/04/06 05:35:52;;;;;;;49.63;32.33;;;;;;;8.83;98.26;99847.53;5017707;28;20574;-76
2022/04/06 05:38:17;;;;;;;50.73;34.37;;;;;;;8.82;98.72;99840.75;5016694;28;20540;-76
2022/04/06 05:40:43;;;;;;;50.67;34.57;;;;;;;8.88;98.01;99848.44;5018242;28;20186;-75
2022/04/06 05:43:08;;;;;;;50.47;34.07;;;;;;;8.88;97.65;99841.66;5037858;28;20490;-76
2022/04/06 05:45:34;;;;;;;47.33;32.90;;;;;;;8.89;97.92;99845.06;5038196;28;20175;-76
2022/04/06 05:47:59;;;;;;;48.07;33.47;;;;;;;8.88;97.60;99853.56;5035103;28;20220;-76
2022/04/06 05:50:24;;;;;;;48.43;32.87;;;;;;;8.95;97.14;99842.56;5038679;28;20190;-76
2022/04/06 05:52:50;;;;;;;46.23;31.47;;;;;;;9.01;97.45;99850.28;5045658;28;20261;-76
2022/04/06 05:55:15;;;;;;;43.73;30.67;;;;;;;9.05;96.96;99842.69;5018931;28;20194;-77
2022/04/06 05:57:41;;;;;;;44.40;30.43;;;;;;;9.13;96.48;99853.78;5032523;28;20623;-76
2022/04/06 06:00:08;;;;;;;42.27;28.87;;;;;;;9.20;95.47;99844.50;5035023;28;20186;-77
2022/04/06 06:02:37;;;;;;;41.67;28.33;;;;;;;9.22;94.67;99846.22;5036300;28;20222;-77
2022/04/06 06:05:02;;;;;;;41.30;27.60;;;;;;;9.23;94.65;99847.09;5037076;28;20260;-77
2022/04/06 06:07:28;;;;;;;35.00;26.90;;;;;;;9.25;94.99;99850.50;5035396;28;20213;-76
2022/04/06 06:09:53;;;;;;;42.50;28.60;;;;;;;9.26;95.12;99852.22;5035840;28;20187;-76
2022/04/06 06:12:19;;;;;;;41.07;26.40;;;;;;;9.27;95.01;99836.06;5036366;28;20252;-76
2022/04/06 06:14:44;;;;;;;41.70;25.63;;;;;;;9.28;94.39;99843.72;5035839;28;20194;-76
2022/04/06 06:17:09;;;;;;;35.87;26.13;;;;;;;9.23;94.73;99840.28;5018129;28;20195;-76
2022/04/06 06:19:35;;;;;;;40.13;26.07;;;;;;;9.24;94.36;99838.56;5017671;28;20209;-76
2022/04/06 06:22:00;;;;;;;46.03;27.07;;;;;;;9.26;94.39;99834.34;5035415;28;20222;-77
2022/04/06 06:24:25;;;;;;;38.90;25.40;;;;;;;9.27;94.42;99843.72;5018147;28;20214;-76
2022/04/06 06:26:53;;;;;;;39.73;26.33;;;;;;;9.24;94.23;99839.44;5036247;28;20712;-76
2022/04/06 06:29:18;;;;;;;37.50;23.87;;;;;;;9.25;94.19;99825.81;5034267;28;20194;-76
2022/04/06 06:31:43;;;;;;;41.07;24.77;;;;;;;9.25;93.67;99836.03;5034224;28;20197;-76
2022/04/06 06:34:10;;;;;;;37.43;25.67;;;;;;;9.26;93.25;99839.47;5034124;28;20675;-77
2022/04/06 06:36:35;;;;;;;34.07;22.80;;;;;;;9.26;93.29;99837.75;5032677;28;20182;-78
2022/04/06 06:39:02;;;;;;;37.00;25.33;;;;;;;9.27;93.71;99830.94;5028277;28;20266;-77
2022/04/06 06:41:27;;;;;;;32.93;23.73;;;;;;;9.27;93.44;99833.50;5019617;28;20222;-77
2022/04/06 06:43:54;;;;;;;33.97;22.20;;;;;;;9.29;92.54;99825.00;5006983;28;20779;-76
2022/04/06 06:46:20;;;;;;;34.47;23.10;;;;;;;9.36;92.09;99824.19;5052638;28;20239;-77
2022/04/06 06:48:47;;;;;;;31.20;21.60;;;;;;;9.40;92.55;99815.72;5053328;28;20185;-77
2022/04/06 06:51:14;;;;;;;34.60;22.37;;;;;;;9.47;92.00;99824.28;5033093;28;20217;-74
2022/04/06 06:53:39;;;;;;;31.17;20.47;;;;;;;9.52;91.65;99812.38;5033350;28;20210;-76
2022/04/06 06:56:05;;;;;;;33.10;21.93;;;;;;;9.57;91.82;99801.34;5015095;28;20186;-76
2022/04/06 06:58:31;;;;;;;32.20;21.70;;;;;;;9.63;91.56;99809.06;5017851;28;20190;-74
2022/04/06 07:00:56;;;;;;;33.40;21.43;;;;;;;9.66;91.24;99809.09;5018145;28;20647;-76
2022/04/06 07:03:22;;;;;;;28.27;20.30;;;;;;;9.68;91.69;99807.38;5012368;28;20315;-76
2022/04/06 07:05:48;;;;;;;29.60;20.53;;;;;;;9.74;91.62;99804.88;5010977;28;20565;-77
2022/04/06 07:08:14;;;;;;;29.53;21.50;;;;;;;9.64;91.28;99797.97;4996765;28;20198;-77
2022/04/06 07:10:45;;;;;;;29.37;20.13;;;;;;;9.55;91.78;99805.63;4981480;28;20196;-75
2022/04/06 07:13:12;;;;;;;28.83;20.17;;;;;;;9.53;91.47;99807.28;5032577;28;20240;-76
2022/04/06 07:15:39;;;;;;;35.07;20.47;;;;;;;9.50;91.73;99808.97;4992594;28;20668;-76
2022/04/06 07:18:06;;;;;;;31.30;20.03;;;;;;;9.45;90.63;99811.47;5021328;28;20221;-77
2022/04/06 07:20:32;;;;;;;31.83;20.80;;;;;;;9.45;91.58;99811.47;4998688;28;20202;-76
2022/04/06 07:22:57;;;;;;;31.53;20.07;;;;;;;9.43;91.20;99810.63;4999079;28;20226;-76
2022/04/06 07:25:23;;;;;;;29.07;21.07;;;;;;;9.45;91.43;99810.66;5013646;28;20204;-76
2022/04/06 07:27:49;;;;;;;27.97;20.10;;;;;;;9.43;91.48;99815.75;5031695;28;20670;-76
2022/04/06 07:30:15;;;;;;;27.77;20.27;;;;;;;9.43;91.05;99805.53;5003424;28;20197;-76
2022/04/06 07:32:41;;;;;;;26.20;19.30;;;;;;;9.45;91.32;99808.94;5013991;28;20242;-76
2022/04/06 07:35:07;;;;;;;26.67;18.67;;;;;;;9.49;90.38;99807.28;5015758;28;20210;-76
2022/04/06 07:37:41;;;;;;;26.50;18.37;;;;;;;9.51;89.86;99796.22;5032258;28;20284;-76
2022/04/06 07:40:10;;;;;;;23.27;16.50;;;;;;;9.54;90.60;99796.22;5025418;28;20228;-77
2022/04/06 07:42:37;;;;;;;24.50;18.43;;;;;;;9.57;90.10;99791.13;5013668;28;20238;-77
2022/04/06 07:45:07;;;;;;;23.40;18.63;;;;;;;9.59;89.46;99802.22;5013324;28;20294;-76
2022/04/06 07:47:33;;;;;;;26.57;18.93;;;;;;;9.64;89.93;99802.25;5011838;28;20300;-76
2022/04/06 07:50:00;;;;;;;26.27;18.77;;;;;;;9.70;89.66;99789.50;5031813;28;20202;-75
2022/04/06 07:52:26;;;;;;;29.57;19.07;;;;;;;9.75;89.61;99792.94;4995871;28;20211;-75
2022/04/06 07:54:52;;;;;;;27.93;17.80;;;;;;;9.83;88.96;99781.06;5028301;28;20259;-76
2022/04/06 07:57:20;;;;;;;27.07;17.40;;;;;;;9.87;89.24;99783.63;5036548;28;20186;-76
2022/04/06 07:59:45;;;;;;;24.43;17.47;;;;;;;9.90;88.05;99793.03;5038449;28;20186;-76
2022/04/06 08:02:11;;;;;;;25.97;17.63;;;;;;;9.94;88.73;99792.19;5038144;28;20225;-77
2022/04/06 08:04:36;;;;;;;25.63;18.37;;;;;;;9.89;87.93;99788.75;5034674;28;20234;-76
2022/04/06 08:09:55;;;;;;;26.00;18.03;;;;;;;9.85;88.89;99790.44;5003961;28;20199;-78
2022/04/06 08:12:21;;;;;;;24.57;18.83;;;;;;;9.88;89.98;99787.03;5007424;28;20194;-79
2022/04/06 08:14:49;;;;;;;26.13;19.33;;;;;;;9.83;89.57;99788.72;5010721;28;20221;-78
2022/04/06 08:17:15;;;;;;;27.60;19.47;;;;;;;9.91;89.69;99780.22;4941059;28;20236;-77
2022/04/06 08:19:41;;;;;;;26.20;17.93;;;;;;;9.90;89.19;99777.69;4988660;28;20214;-78
2022/04/06 08:23:00;;;;;;;22.67;17.90;;;;;;;9.93;88.86;99783.69;4979604;28;20216;-78
2022/04/06 08:26:10;;;;;;;24.13;17.40;;;;;;;9.96;88.23;99795.63;4975401;28;20202;-78
2022/04/06 08:29:36;;;;;;;21.73;16.70;;;;;;;9.99;87.83;99786.25;4950876;28;20196;-78
2022/04/06 08:32:47;;;;;;;24.47;17.20;;;;;;;10.01;87.57;99782.00;4992302;28;20727;-77
2022/04/06 08:35:38;;;;;;;23.03;16.93;;;;;;;10.04;87.47;99784.59;4977709;28;20259;-78
2022/04/06 08:38:07;;;;;;;25.57;17.03;;;;;;;10.04;87.13;99768.38;4978909;28;20262;-78
2022/04/06 08:41:02;;;;;;;22.80;16.07;;;;;;;10.04;86.40;99773.50;4978814;28;20265;-78
2022/04/06 08:43:34;;;;;;;23.30;16.73;;;;;;;10.05;86.75;99785.47;4978520;28;20230;-77
2022/04/06 08:46:59;;;;;;;24.37;17.10;;;;;;;10.06;86.48;99787.16;4978909;28;20192;-78
2022/04/06 08:49:51;;;;;;;23.00;16.23;;;;;;;10.06;86.27;99782.06;4992909;28;20218;-76
2022/04/06 08:52:16;;;;;;;23.83;15.90;;;;;;;10.06;86.24;99775.25;4987255;28;20208;-77
2022/04/06 08:54:43;;;;;;;22.97;16.47;;;;;;;10.07;86.20;99778.63;4980458;28;20192;-78
2022/04/06 08:57:08;;;;;;;22.33;16.30;;;;;;;10.07;85.80;99776.06;4967880;28;20612;-78
2022/04/06 08:59:34;;;;;;;20.80;14.80;;;;;;;10.09;85.53;99770.13;4982375;28;20251;-78
2022/04/06 09:01:59;;;;;;;22.60;15.00;;;;;;;10.14;85.68;99775.28;4980387;28;20271;-79
2022/04/06 09:04:25;;;;;;;22.37;14.83;;;;;;;10.11;84.68;99768.44;4977373;28;20219;-79
2022/04/06 09:06:52;;;;;;;21.13;14.50;;;;;;;10.14;84.66;99773.53;4966740;28;20236;-76
2022/04/06 09:09:24;;;;;;;19.90;13.77;;;;;;;10.13;84.05;99766.72;4962423;28;20204;-78
2022/04/06 09:11:51;;;;;;;18.67;12.97;;;;;;;10.16;84.59;99763.31;4973680;28;20192;-77
2022/04/06 09:14:30;;;;;;;20.50;14.03;;;;;;;10.21;83.78;99774.44;4960324;28;20236;-77
2022/04/06 09:17:04;;;;;;;16.60;13.10;;;;;;;10.19;83.58;99765.91;4982369;28;20232;-78
2022/04/06 09:19:40;;;;;;;20.40;13.37;;;;;;;10.20;83.71;99768.47;4982507;28;20257;-77
2022/04/06 09:22:10;;;;;;;17.33;12.60;;;;;;;10.25;82.95;99777.03;4982454;28;20225;-77
2022/04/06 09:24:40;;;;;;;16.97;11.63;;;;;;;10.26;82.51;99775.28;4981034;28;20203;-79
2022/04/06 09:27:07;;;;;;;22.47;12.13;;;;;;;10.48;83.55;99777.06;4955352;28;20662;-73
2022/04/06 09:29:34;;;;;;;17.23;10.93;;;;;;;10.51;81.92;99771.97;4955718;28;20200;-77
2022/04/06 09:32:10;;;;;;;16.97;11.47;;;;;;;10.39;82.63;99772.78;4959127;28;20228;-78
2022/04/06 09:34:42;;;;;;;12.20;9.83;;;;;;;10.35;81.39;99783.00;4959854;28;20251;-77
2022/04/06 09:37:38;;;;;;;16.83;9.93;;;;;;;10.31;81.55;99776.16;4982021;28;20192;-78
2022/04/06 09:40:39;;;;;;;13.10;9.80;;;;;;;10.28;81.10;99769.31;4982053;28;20741;-78
2022/04/06 09:43:36;;;;;;;12.63;9.23;;;;;;;10.29;81.62;99776.19;4966835;28;20231;-77
2022/04/06 09:49:28;;;;;;;11.73;8.40;;;;;;;10.32;81.12;99757.44;4967559;28;20205;-78
2022/04/06 09:52:22;;;;;;;14.50;8.30;;;;;;;10.35;80.77;99763.41;4945139;28;20195;-78
2022/04/06 09:55:16;;;;;;;12.43;7.97;;;;;;;10.41;80.93;99768.53;4981935;28;20196;-78
2022/04/06 09:57:59;;;;;;;17.07;8.50;;;;;;;10.42;80.51;99764.28;4948708;28;20288;-78
2022/04/06 10:00:34;;;;;;;14.70;8.30;;;;;;;10.47;80.65;99760.00;4979607;28;20196;-77
2022/04/06 10:03:15;;;;;;;9.87;7.17;;;;;;;10.42;80.33;99767.66;4947128;28;20295;-77
2022/04/06 10:05:52;;;;;;;12.77;7.20;;;;;;;10.42;80.44;99759.16;4962451;28;20192;-78
2022/04/06 10:08:34;;;;;;;11.63;7.90;;;;;;;10.39;80.98;99754.88;4983334;28;20298;-78
2022/04/06 10:11:03;;;;;;;11.10;7.77;;;;;;;10.37;80.46;99769.34;4982281;28;20211;-77
2022/04/06 10:13:30;;;;;;;11.43;7.60;;;;;;;10.47;81.30;99762.56;4979496;28;20223;-77
2022/04/06 10:15:58;;;;;;;10.33;7.20;;;;;;;10.42;80.42;99764.28;4980366;28;20210;-77
2022/04/06 10:18:32;;;;;;;11.70;7.13;;;;;;;10.39;81.17;99759.13;4980640;28;20195;-77
2022/04/06 10:21:22;;;;;;;14.63;7.67;;;;;;;10.43;81.34;99759.16;4979961;28;20212;-77
2022/04/06 10:24:07;;;;;;;11.93;7.53;;;;;;;10.35;80.88;99757.41;4980221;28;20213;-76
2022/04/06 10:26:43;;;;;;;10.13;7.33;;;;;;;10.39;81.32;99757.44;4995725;28;20227;-77
2022/04/06 10:29:10;;;;;;;11.17;7.43;;;;;;;10.41;80.29;99757.44;4997565;28;20176;-77
2022/04/06 10:31:36;;;;;;;14.07;7.53;;;;;;;10.51;80.97;99751.50;4964212;28;20200;-77
2022/04/06 10:34:30;;;;;;;11.07;8.03;;;;;;;10.38;80.61;99757.44;4963216;28;20376;-77
2022/04/06 10:37:05;;;;;;;12.03;8.20;;;;;;;10.46;81.05;99743.78;4963726;28;20305;-77
2022/04/06 10:39:54;;;;;;;14.07;7.37;;;;;;;10.44;81.34;99750.63;4979192;28;20191;-77
2022/04/06 10:42:34;;;;;;;11.90;7.43;;;;;;;10.37;80.58;99735.25;4979048;28;20231;-77
2022/04/06 10:45:05;;;;;;;11.93;8.00;;;;;;;10.37;80.98;99741.22;4977627;28;20198;-77
2022/04/06 10:47:36;;;;;;;14.07;7.63;;;;;;;10.40;80.69;99746.34;4990057;28;20208;-77
2022/04/06 10:50:20;;;;;;;10.87;7.53;;;;;;;10.38;80.39;99735.25;4930216;28;20192;-77
2022/04/06 10:52:46;;;;;;;9.63;7.40;;;;;;;10.42;81.60;99736.13;4977513;28;20219;-77
2022/04/06 10:55:24;;;;;;;15.63;7.87;;;;;;;10.44;81.41;99734.41;4960933;28;20307;-77
2022/04/06 10:58:05;;;;;;;13.73;7.63;;;;;;;10.36;81.98;99748.88;4977577;28;20709;-77
2022/04/06 11:00:34;;;;;;;11.60;7.93;;;;;;;10.32;82.01;99729.28;4968800;28;20219;-77
2022/04/06 11:03:15;;;;;;;12.27;7.23;;;;;;;10.32;81.35;99730.13;4977977;28;20230;-77
2022/04/06 11:05:49;;;;;;;11.27;7.93;;;;;;;10.33;81.62;99731.81;5015978;28;20207;-77
2022/04/06 11:11:46;;;;;;;9.97;7.23;;;;;;;10.41;82.03;99724.19;4998260;28;20212;-77
2022/04/06 11:14:32;;;;;;;9.77;7.07;;;;;;;10.35;82.37;99721.59;4984673;28;20266;-77
2022/04/06 11:16:59;;;;;;;10.40;7.47;;;;;;;10.37;82.18;99712.22;4973592;28;20202;-77
2022/04/06 11:19:26;;;;;;;11.13;7.63;;;;;;;10.27;82.09;99713.91;4989451;28;20204;-77
2022/04/06 11:21:56;;;;;;;12.30;7.60;;;;;;;10.26;82.89;99722.44;4980325;28;20219;-77
2022/04/06 11:24:31;;;;;;;10.60;7.53;;;;;;;10.24;82.21;99725.84;4989834;28;20219;-77
2022/04/06 11:27:00;;;;;;;9.40;7.33;;;;;;;10.35;82.70;99721.59;4969353;28;20179;-77
2022/04/06 11:29:27;;;;;;;11.90;7.27;;;;;;;10.34;82.27;99705.41;4991939;28;20194;-77
2022/04/06 11:32:06;;;;;;;9.60;7.43;;;;;;;10.42;81.72;99703.69;4964618;28;20172;-77
2022/04/06 11:34:40;;;;;;;12.27;7.30;;;;;;;10.46;81.81;99707.13;4995636;28;20217;-77
2022/04/06 11:37:08;;;;;;;11.37;7.57;;;;;;;10.49;82.00;99710.53;4947321;28;20362;-77
2022/04/06 11:39:37;;;;;;;9.47;7.50;;;;;;;10.44;81.44;99704.56;4998745;28;20207;-77
2022/04/06 11:42:05;;;;;;;11.73;6.60;;;;;;;10.41;81.49;99706.28;4983033;28;20668;-77
2022/04/06 11:44:35;;;;;;;12.37;7.20;;;;;;;10.48;81.22;99715.66;4982812;28;20199;-77
2022/04/06 11:47:01;;;;;;;11.50;7.27;;;;;;;10.46;80.45;99720.75;4999734;28;20211;-77